Time;durP1;ratioP1;P1;durP2;ratioP2;P2;SDS_P1;SDS_P2;PMS_P1;PMS_P2;Temp;Humidity;BMP_temperature;BMP_pressure;BME280_temperature;BME280_humidity;BME280_pressure;Samples;Min_cycle;Max_cycle;Signal;HPM_P1;HPM_P2
2023/10/31 00:00:12;;;;;;;4.30;4.00;;;;;;;;;;5035664;28;20257;-69
2023/10/31 00:02:39;;;;;;;3.88;3.58;;;;;;;;;;5034495;28;20379;-69
2023/10/31 00:05:05;;;;;;;4.43;3.37;;;;;;;;;;5034923;28;20415;-69
2023/10/31 00:07:31;;;;;;;4.15;3.75;;;;;;;;;;5034787;28;20394;-69
2023/10/31 00:09:57;;;;;;;4.10;3.70;;;;;;;;;;5051833;28;20184;-68
2023/10/31 00:12:23;;;;;;;4.43;4.03;;;;;;;;;;5035675;28;20202;-69
2023/10/31 00:14:48;;;;;;;5.90;5.33;;;;;;;;;;5050732;28;20176;-69
2023/10/31 00:17:14;;;;;;;5.80;5.30;;;;;;;;;;5035262;28;20213;-68
2023/10/31 00:19:40;;;;;;;7.40;6.90;;;;;;;;;;5034438;28;20478;-69
2023/10/31 00:22:06;;;;;;;7.23;6.60;;;;;;;;;;5050620;28;20207;-68
2023/10/31 00:24:32;;;;;;;6.97;6.43;;;;;;;;;;5034460;28;20375;-68
2023/10/31 00:26:58;;;;;;;6.70;6.20;;;;;;;;;;5035535;28;20577;-68
2023/10/31 00:29:24;;;;;;;6.03;5.27;;;;;;;;;;5035541;28;20183;-69
2023/10/31 00:31:51;;;;;;;5.57;5.07;;;;;;;;;;5035366;28;20260;-68
2023/10/31 00:34:17;;;;;;;5.20;4.80;;;;;;;;;;5049448;28;20391;-69
2023/10/31 00:36:43;;;;;;;4.87;3.97;;;;;;;;;;5050361;28;20215;-69
2023/10/31 00:39:09;;;;;;;3.67;3.37;;;;;;;;;;5050418;28;20665;-69
2023/10/31 00:41:35;;;;;;;4.13;3.67;;;;;;;;;;5050154;28;20183;-69
2023/10/31 00:44:01;;;;;;;2.43;2.33;;;;;;;;;;5050463;28;20210;-68
2023/10/31 00:46:27;;;;;;;3.47;2.43;;;;;;;;;;5035055;28;20203;-68
2023/10/31 00:48:53;;;;;;;3.33;2.67;;;;;;;;;;5035654;28;20241;-69
2023/10/31 00:51:19;;;;;;;2.67;2.13;;;;;;;;;;5034729;28;20384;-68
2023/10/31 00:53:45;;;;;;;1.93;1.80;;;;;;;;;;5036584;28;20198;-68
2023/10/31 00:56:11;;;;;;;2.20;2.00;;;;;;;;;;5037346;28;20182;-68
2023/10/31 00:58:37;;;;;;;3.03;2.10;;;;;;;;;;5038847;28;20203;-69
2023/10/31 01:01:03;;;;;;;2.53;2.10;;;;;;;;;;5051764;28;20171;-67
2023/10/31 01:03:29;;;;;;;3.57;2.17;;;;;;;;;;5049462;28;20274;-70
2023/10/31 01:05:54;;;;;;;2.73;2.40;;;;;;;;;;5048556;28;20176;-69
2023/10/31 01:08:20;;;;;;;3.83;2.58;;;;;;;;;;5046642;28;20470;-71
2023/10/31 01:10:46;;;;;;;4.53;2.97;;;;;;;;;;5038301;28;20189;-69
2023/10/31 01:13:12;;;;;;;4.87;4.00;;;;;;;;;;5050166;28;20195;-69
2023/10/31 01:15:38;;;;;;;5.07;4.57;;;;;;;;;;5050144;28;20179;-69
2023/10/31 01:18:05;;;;;;;8.97;5.77;;;;;;;;;;5034887;28;20207;-69
2023/10/31 01:20:31;;;;;;;8.23;7.10;;;;;;;;;;5034665;28;20642;-69
2023/10/31 01:22:57;;;;;;;8.17;7.37;;;;;;;;;;5034712;28;20696;-69
2023/10/31 01:25:23;;;;;;;7.87;6.50;;;;;;;;;;5034815;28;20732;-67
2023/10/31 01:27:49;;;;;;;7.80;7.00;;;;;;;;;;5034901;28;20210;-68
2023/10/31 01:30:15;;;;;;;9.63;8.43;;;;;;;;;;5035010;28;20186;-67
2023/10/31 01:32:41;;;;;;;9.13;8.40;;;;;;;;;;5034578;28;20286;-67
2023/10/31 01:35:07;;;;;;;10.98;10.00;;;;;;;;;;5048336;28;20395;-68
2023/10/31 01:37:33;;;;;;;10.93;9.70;;;;;;;;;;5034010;28;20595;-67
2023/10/31 01:39:59;;;;;;;10.30;9.47;;;;;;;;;;5034332;28;20175;-67
2023/10/31 01:42:25;;;;;;;11.43;10.50;;;;;;;;;;5034047;28;20692;-69
2023/10/31 01:44:51;;;;;;;11.53;10.43;;;;;;;;;;5033109;28;20175;-69
2023/10/31 01:47:17;;;;;;;11.17;10.03;;;;;;;;;;5034614;28;20179;-67
2023/10/31 01:49:43;;;;;;;12.25;11.05;;;;;;;;;;5032800;28;20491;-67
2023/10/31 01:52:09;;;;;;;11.10;10.03;;;;;;;;;;5034235;28;20248;-67
2023/10/31 01:54:36;;;;;;;10.63;9.63;;;;;;;;;;5034616;28;20175;-67
2023/10/31 01:57:03;;;;;;;11.30;10.10;;;;;;;;;;5049192;28;20289;-67
2023/10/31 01:59:29;;;;;;;11.10;9.83;;;;;;;;;;5033132;28;20178;-67
2023/10/31 02:01:58;;;;;;;13.33;10.00;;;;;;;;;;5034199;28;20191;-67
2023/10/31 02:04:24;;;;;;;11.18;9.95;;;;;;;;;;5032679;28;20510;-67
2023/10/31 02:06:50;;;;;;;9.70;8.83;;;;;;;;;;5033825;28;20655;-68
2023/10/31 02:09:16;;;;;;;12.27;8.73;;;;;;;;;;5048887;28;20183;-67
2023/10/31 02:11:42;;;;;;;9.23;8.33;;;;;;;;;;5034013;28;20206;-67
2023/10/31 02:14:08;;;;;;;12.43;8.83;;;;;;;;;;5033153;28;20656;-67
2023/10/31 02:16:34;;;;;;;12.13;9.40;;;;;;;;;;5033404;28;20178;-67
2023/10/31 02:19:00;;;;;;;16.03;10.23;;;;;;;;;;5033194;28;20245;-68
2023/10/31 02:21:26;;;;;;;12.80;9.90;;;;;;;;;;5032412;28;20179;-68
2023/10/31 02:23:59;;;;;;;13.67;11.17;;;;;;;;;;5048716;28;20225;-68
2023/10/31 02:26:35;;;;;;;14.83;10.80;;;;;;;;;;5032151;28;20179;-68
2023/10/31 02:29:01;;;;;;;16.80;12.67;;;;;;;;;;5032219;28;20191;-68
2023/10/31 02:31:27;;;;;;;16.00;12.93;;;;;;;;;;5033905;28;20175;-67
2023/10/31 02:33:53;;;;;;;18.67;15.87;;;;;;;;;;5033374;28;20633;-67
2023/10/31 02:36:19;;;;;;;18.30;16.50;;;;;;;;;;5033225;28;20175;-68
2023/10/31 02:38:45;;;;;;;20.37;16.53;;;;;;;;;;5032117;28;20183;-68
2023/10/31 02:41:11;;;;;;;19.43;16.37;;;;;;;;;;5033399;28;20179;-67
2023/10/31 02:43:38;;;;;;;25.40;17.17;;;;;;;;;;5033119;28;20221;-69
2023/10/31 02:46:04;;;;;;;21.53;18.00;;;;;;;;;;5033038;28;20183;-68
2023/10/31 02:48:37;;;;;;;20.30;18.00;;;;;;;;;;5033485;28;20614;-67
2023/10/31 02:51:03;;;;;;;24.23;18.33;;;;;;;;;;5033207;28;20179;-68
2023/10/31 02:53:29;;;;;;;22.90;17.57;;;;;;;;;;5033049;28;20191;-68
2023/10/31 02:55:55;;;;;;;25.00;17.50;;;;;;;;;;5033447;28;20175;-69
2023/10/31 02:58:21;;;;;;;22.50;17.80;;;;;;;;;;5033129;28;20234;-68
2023/10/31 03:00:47;;;;;;;20.77;17.13;;;;;;;;;;5033072;28;20176;-68
2023/10/31 03:03:13;;;;;;;20.07;17.57;;;;;;;;;;5033117;28;20224;-68
2023/10/31 03:05:39;;;;;;;24.07;17.40;;;;;;;;;;5033120;28;20268;-69
2023/10/31 03:08:07;;;;;;;20.37;17.60;;;;;;;;;;5033196;28;20180;-69
2023/10/31 03:10:33;;;;;;;22.57;17.20;;;;;;;;;;5033361;28;20542;-68
2023/10/31 03:12:59;;;;;;;19.17;16.37;;;;;;;;;;5033225;28;20213;-68
2023/10/31 03:15:25;;;;;;;19.17;16.77;;;;;;;;;;5031633;28;20256;-68
2023/10/31 03:17:51;;;;;;;17.30;13.50;;;;;;;;;;5033017;28;20234;-68
2023/10/31 03:20:17;;;;;;;20.10;15.93;;;;;;;;;;5032879;28;20257;-68
2023/10/31 03:22:43;;;;;;;16.57;14.93;;;;;;;;;;5033276;28;20677;-69
2023/10/31 03:25:09;;;;;;;18.20;13.83;;;;;;;;;;5032486;28;20211;-68
2023/10/31 03:27:35;;;;;;;15.17;12.83;;;;;;;;;;5036674;28;20179;-68
2023/10/31 03:30:01;;;;;;;17.30;12.73;;;;;;;;;;5036811;28;20183;-69
2023/10/31 03:32:27;;;;;;;16.77;12.70;;;;;;;;;;5036734;28;20254;-68
2023/10/31 03:34:53;;;;;;;14.93;13.33;;;;;;;;;;5036854;28;20258;-69
2023/10/31 03:37:18;;;;;;;16.93;12.53;;;;;;;;;;5036829;28;20229;-69
2023/10/31 03:39:44;;;;;;;20.80;13.37;;;;;;;;;;5040378;28;20539;-69
2023/10/31 03:42:10;;;;;;;15.20;12.03;;;;;;;;;;5034817;28;20207;-69
2023/10/31 03:44:36;;;;;;;18.47;13.33;;;;;;;;;;5036368;28;20167;-68
2023/10/31 03:47:02;;;;;;;17.40;13.17;;;;;;;;;;5036850;28;20244;-68
2023/10/31 03:49:30;;;;;;;19.40;13.70;;;;;;;;;;5035237;28;20214;-69
2023/10/31 03:51:56;;;;;;;20.07;13.93;;;;;;;;;;5036220;28;20278;-68
2023/10/31 03:54:22;;;;;;;19.13;14.60;;;;;;;;;;5035348;28;20219;-69
2023/10/31 03:56:48;;;;;;;17.43;13.63;;;;;;;;;;5036095;28;20207;-68
2023/10/31 03:59:14;;;;;;;19.93;15.13;;;;;;;;;;5036084;28;20179;-68
2023/10/31 04:01:40;;;;;;;21.30;15.30;;;;;;;;;;5035912;28;20176;-69
2023/10/31 04:04:06;;;;;;;18.70;14.27;;;;;;;;;;5034702;28;20182;-69
2023/10/31 04:06:32;;;;;;;18.50;13.47;;;;;;;;;;5040716;23;20266;-72
2023/10/31 04:08:58;;;;;;;20.83;14.13;;;;;;;;;;5014206;28;20176;-71
2023/10/31 04:11:24;;;;;;;17.57;13.80;;;;;;;;;;5013311;28;20338;-73
2023/10/31 04:13:50;;;;;;;18.13;14.10;;;;;;;;;;5015378;28;20176;-71
2023/10/31 04:16:16;;;;;;;20.33;12.83;;;;;;;;;;5013398;28;20314;-71
2023/10/31 04:18:42;;;;;;;18.40;13.23;;;;;;;;;;5014748;28;20283;-70
2023/10/31 04:21:08;;;;;;;15.67;12.77;;;;;;;;;;5015185;28;20681;-71
2023/10/31 04:23:34;;;;;;;18.10;14.50;;;;;;;;;;5014614;28;20531;-71
2023/10/31 04:26:00;;;;;;;18.33;14.47;;;;;;;;;;5014674;28;20536;-71
2023/10/31 04:28:26;;;;;;;21.67;16.03;;;;;;;;;;5013838;28;20275;-70
2023/10/31 04:30:52;;;;;;;22.73;16.13;;;;;;;;;;5013676;28;20246;-70
2023/10/31 04:33:18;;;;;;;19.50;14.97;;;;;;;;;;5016079;28;20176;-70
2023/10/31 04:35:44;;;;;;;20.67;15.63;;;;;;;;;;5015077;28;20278;-71
2023/10/31 04:38:10;;;;;;;20.27;16.30;;;;;;;;;;5017870;28;20246;-71
2023/10/31 04:40:36;;;;;;;21.43;16.10;;;;;;;;;;5015621;28;20669;-70
2023/10/31 04:43:02;;;;;;;19.60;15.50;;;;;;;;;;5018320;28;20545;-69
2023/10/31 04:45:28;;;;;;;19.57;14.60;;;;;;;;;;5017791;28;20191;-73
2023/10/31 04:47:54;;;;;;;21.80;15.90;;;;;;;;;;5017739;28;20180;-72
2023/10/31 04:50:20;;;;;;;21.20;15.60;;;;;;;;;;5016804;28;20215;-72
2023/10/31 04:52:46;;;;;;;21.57;16.03;;;;;;;;;;5015072;28;20668;-72
2023/10/31 04:55:12;;;;;;;19.33;15.63;;;;;;;;;;5017124;28;20202;-72
2023/10/31 04:57:38;;;;;;;19.73;14.80;;;;;;;;;;5022116;28;20211;-72
2023/10/31 05:00:06;;;;;;;23.33;16.70;;;;;;;;;;5017016;28;20211;-72
2023/10/31 05:02:32;;;;;;;19.30;14.87;;;;;;;;;;5019286;28;20278;-72
2023/10/31 05:04:58;;;;;;;19.00;15.80;;;;;;;;;;5015926;28;20238;-72
2023/10/31 05:07:24;;;;;;;21.83;15.87;;;;;;;;;;5014406;28;20211;-71
2023/10/31 05:09:50;;;;;;;21.33;15.40;;;;;;;;;;5015293;28;20259;-71
2023/10/31 05:12:16;;;;;;;21.37;16.73;;;;;;;;;;5013720;28;20318;-72
2023/10/31 05:14:42;;;;;;;23.97;17.43;;;;;;;;;;5013062;28;20223;-71
2023/10/31 05:17:08;;;;;;;23.63;17.50;;;;;;;;;;5012234;28;20214;-72
2023/10/31 05:19:34;;;;;;;22.87;17.80;;;;;;;;;;5014360;28;20255;-71
2023/10/31 05:22:00;;;;;;;22.17;18.27;;;;;;;;;;5013625;28;20184;-71
2023/10/31 05:24:26;;;;;;;30.17;19.43;;;;;;;;;;5013525;28;20176;-72
2023/10/31 05:26:52;;;;;;;31.20;20.20;;;;;;;;;;5012804;28;20666;-73
2023/10/31 05:29:18;;;;;;;25.40;18.93;;;;;;;;;;5012068;28;20191;-72
2023/10/31 05:31:44;;;;;;;27.87;18.97;;;;;;;;;;5013648;28;20193;-72
2023/10/31 05:34:10;;;;;;;22.43;19.23;;;;;;;;;;5011891;28;20183;-71
2023/10/31 05:36:37;;;;;;;24.47;20.17;;;;;;;;;;5013471;28;20282;-71
2023/10/31 05:39:04;;;;;;;25.20;20.20;;;;;;;;;;5012006;28;20605;-72
2023/10/31 05:41:30;;;;;;;27.20;21.53;;;;;;;;;;5013099;28;20229;-71
2023/10/31 05:43:55;;;;;;;24.67;21.13;;;;;;;;;;5013207;28;20623;-71
2023/10/31 05:46:22;;;;;;;22.20;19.80;;;;;;;;;;5011669;28;20204;-71
2023/10/31 05:48:48;;;;;;;22.93;20.53;;;;;;;;;;5012200;28;20176;-72
2023/10/31 05:51:15;;;;;;;23.37;20.73;;;;;;;;;;5013227;28;20176;-71
2023/10/31 05:53:42;;;;;;;23.87;20.50;;;;;;;;;;5013238;28;20176;-73
2023/10/31 05:56:08;;;;;;;21.67;19.40;;;;;;;;;;5013215;28;20241;-70
2023/10/31 05:58:34;;;;;;;21.97;19.40;;;;;;;;;;5011691;28;20203;-70
2023/10/31 06:01:00;;;;;;;21.50;19.27;;;;;;;;;;5013005;28;20215;-71
2023/10/31 06:03:26;;;;;;;21.40;18.47;;;;;;;;;;5012945;28;20172;-71
2023/10/31 06:05:52;;;;;;;21.20;18.33;;;;;;;;;;5011538;28;20207;-68
2023/10/31 06:08:18;;;;;;;20.20;18.10;;;;;;;;;;5011785;28;20176;-68
2023/10/31 06:10:44;;;;;;;19.67;17.63;;;;;;;;;;5013233;28;20186;-68
2023/10/31 06:13:10;;;;;;;18.60;16.63;;;;;;;;;;5012840;28;20215;-69
2023/10/31 06:15:36;;;;;;;17.27;15.63;;;;;;;;;;5012815;28;20180;-68
2023/10/31 06:18:03;;;;;;;17.73;15.80;;;;;;;;;;5011436;28;20208;-68
2023/10/31 06:20:29;;;;;;;17.53;15.83;;;;;;;;;;5011415;28;20176;-68
2023/10/31 06:22:55;;;;;;;16.80;15.00;;;;;;;;;;5012734;28;20191;-68
2023/10/31 06:25:21;;;;;;;17.23;15.27;;;;;;;;;;5012538;28;20172;-70
2023/10/31 06:27:47;;;;;;;17.10;15.40;;;;;;;;;;5012752;28;20259;-68
2023/10/31 06:30:13;;;;;;;16.93;15.23;;;;;;;;;;5011208;28;20187;-68
2023/10/31 06:32:40;;;;;;;17.00;15.20;;;;;;;;;;5011336;28;20191;-68
2023/10/31 06:35:07;;;;;;;17.57;15.80;;;;;;;;;;5012778;28;20172;-68
2023/10/31 06:37:32;;;;;;;18.20;16.40;;;;;;;;;;5012645;28;20207;-68
2023/10/31 06:39:58;;;;;;;17.13;15.47;;;;;;;;;;5012526;28;20176;-68
2023/10/31 06:42:24;;;;;;;19.63;17.53;;;;;;;;;;5012258;28;20187;-70
2023/10/31 06:44:50;;;;;;;17.10;15.40;;;;;;;;;;5011104;28;20311;-72
2023/10/31 06:47:16;;;;;;;14.67;13.27;;;;;;;;;;5012681;28;20558;-71
2023/10/31 06:49:42;;;;;;;14.77;13.37;;;;;;;;;;5012569;28;20180;-71
2023/10/31 06:52:08;;;;;;;14.63;13.23;;;;;;;;;;5011201;28;20188;-71
2023/10/31 06:54:34;;;;;;;14.93;12.70;;;;;;;;;;5012670;28;20181;-70
2023/10/31 06:57:01;;;;;;;14.23;12.83;;;;;;;;;;5010882;28;20207;-70
2023/10/31 06:59:29;;;;;;;14.70;12.43;;;;;;;;;;5013480;28;20625;-71
2023/10/31 07:01:55;;;;;;;13.87;12.63;;;;;;;;;;5016240;28;20176;-70
2023/10/31 07:04:21;;;;;;;13.90;12.57;;;;;;;;;;5015986;28;20208;-71
2023/10/31 07:06:47;;;;;;;14.63;13.33;;;;;;;;;;5015996;28;20632;-70
2023/10/31 07:09:13;;;;;;;14.50;13.17;;;;;;;;;;5016260;28;20258;-70
2023/10/31 07:11:39;;;;;;;14.87;13.37;;;;;;;;;;5015498;28;20210;-70
2023/10/31 07:14:05;;;;;;;15.77;14.30;;;;;;;;;;5016195;28;20651;-71
2023/10/31 07:16:33;;;;;;;16.40;14.80;;;;;;;;;;5016145;28;20201;-69
2023/10/31 07:18:59;;;;;;;17.20;15.40;;;;;;;;;;5014615;28;20202;-70
2023/10/31 07:21:26;;;;;;;17.43;15.73;;;;;;;;;;5014663;28;20673;-71
2023/10/31 07:23:52;;;;;;;20.20;15.87;;;;;;;;;;5016474;28;20634;-71
2023/10/31 07:26:18;;;;;;;18.83;16.93;;;;;;;;;;5014449;28;20204;-70
2023/10/31 07:28:44;;;;;;;20.10;18.20;;;;;;;;;;5014555;28;20190;-71
2023/10/31 07:31:10;;;;;;;20.27;18.17;;;;;;;;;;5015877;28;20225;-71
2023/10/31 07:33:36;;;;;;;19.53;17.73;;;;;;;;;;5015920;28;20573;-70
2023/10/31 07:36:02;;;;;;;19.40;17.57;;;;;;;;;;5015607;28;20200;-71
2023/10/31 07:38:27;;;;;;;20.83;18.83;;;;;;;;;;5014726;28;20666;-71
2023/10/31 07:40:53;;;;;;;19.97;17.50;;;;;;;;;;5015751;28;20222;-71
2023/10/31 07:43:19;;;;;;;19.80;17.87;;;;;;;;;;5014125;28;20305;-70
2023/10/31 07:45:45;;;;;;;18.67;16.73;;;;;;;;;;5015384;28;20195;-70
2023/10/31 07:48:11;;;;;;;17.43;15.87;;;;;;;;;;5014127;28;20215;-70
2023/10/31 07:50:37;;;;;;;18.97;17.17;;;;;;;;;;5015314;28;20646;-71
2023/10/31 07:53:03;;;;;;;17.80;16.23;;;;;;;;;;5014369;28;20195;-70
2023/10/31 07:55:29;;;;;;;19.17;17.33;;;;;;;;;;5013961;28;20673;-70
2023/10/31 07:57:55;;;;;;;19.10;16.93;;;;;;;;;;5013846;28;20235;-70
2023/10/31 08:00:22;;;;;;;16.67;15.03;;;;;;;;;;5015400;28;20218;-68
2023/10/31 08:02:48;;;;;;;16.90;15.17;;;;;;;;;;5013801;28;20187;-70
2023/10/31 08:05:14;;;;;;;17.23;15.50;;;;;;;;;;5014916;28;20515;-70
2023/10/31 08:07:40;;;;;;;17.00;15.43;;;;;;;;;;5013502;28;20652;-70
2023/10/31 08:10:06;;;;;;;16.37;14.83;;;;;;;;;;5014084;28;20187;-70
2023/10/31 08:12:32;;;;;;;17.07;15.30;;;;;;;;;;5012864;28;20550;-70
2023/10/31 08:15:01;;;;;;;17.17;15.47;;;;;;;;;;5015149;28;20176;-68
2023/10/31 08:17:27;;;;;;;17.17;15.60;;;;;;;;;;5014929;28;20329;-69
2023/10/31 08:19:53;;;;;;;14.63;13.23;;;;;;;;;;5015121;28;20204;-70
2023/10/31 08:22:19;;;;;;;14.90;13.53;;;;;;;;;;5015013;28;20172;-70
2023/10/31 08:24:44;;;;;;;15.60;14.13;;;;;;;;;;5014824;28;20176;-70
2023/10/31 08:27:12;;;;;;;15.23;13.50;;;;;;;;;;5014943;28;20199;-70
2023/10/31 08:29:38;;;;;;;16.70;14.00;;;;;;;;;;5015110;28;20182;-70
2023/10/31 08:32:04;;;;;;;15.53;13.70;;;;;;;;;;5015002;28;20258;-70
2023/10/31 08:34:30;;;;;;;14.33;12.90;;;;;;;;;;5014628;28;20183;-70
2023/10/31 08:36:58;;;;;;;13.33;12.03;;;;;;;;;;5013272;28;20667;-70
2023/10/31 08:39:24;;;;;;;13.23;12.03;;;;;;;;;;5014712;28;20179;-69
2023/10/31 08:41:54;;;;;;;11.80;10.80;;;;;;;;;;5014640;28;20180;-70
2023/10/31 08:44:20;;;;;;;10.57;9.60;;;;;;;;;;5014694;28;20263;-70
2023/10/31 08:46:46;;;;;;;11.33;8.83;;;;;;;;;;5014662;28;20214;-70
2023/10/31 08:49:12;;;;;;;10.50;9.60;;;;;;;;;;5014297;28;20792;-70
2023/10/31 08:51:39;;;;;;;9.47;8.63;;;;;;;;;;5014890;28;20188;-70
2023/10/31 08:54:05;;;;;;;8.87;8.00;;;;;;;;;;5014769;28;20206;-70
2023/10/31 08:56:31;;;;;;;9.30;8.40;;;;;;;;;;5013122;28;20192;-70
2023/10/31 08:58:57;;;;;;;12.40;8.50;;;;;;;;;;5014449;28;20295;-69
2023/10/31 09:01:23;;;;;;;9.77;7.40;;;;;;;;;;5015789;28;20176;-70
2023/10/31 09:03:49;;;;;;;8.13;7.20;;;;;;;;;;5014437;28;20176;-70
2023/10/31 09:06:15;;;;;;;10.37;8.13;;;;;;;;;;5012881;28;20226;-70
2023/10/31 09:08:41;;;;;;;7.73;7.03;;;;;;;;;;5014419;28;20176;-70
2023/10/31 09:11:07;;;;;;;7.60;6.83;;;;;;;;;;5013395;28;20252;-69
2023/10/31 09:13:33;;;;;;;8.13;7.43;;;;;;;;;;5014359;28;20279;-70
2023/10/31 09:16:00;;;;;;;9.87;7.20;;;;;;;;;;5015001;28;20622;-70
2023/10/31 09:18:26;;;;;;;8.83;7.60;;;;;;;;;;5021254;28;20203;-69
2023/10/31 09:20:52;;;;;;;8.37;7.33;;;;;;;;;;5022611;28;20183;-70
2023/10/31 09:23:18;;;;;;;8.33;7.20;;;;;;;;;;5019489;28;20232;-70
2023/10/31 09:25:44;;;;;;;9.00;7.67;;;;;;;;;;5012907;28;20200;-70
2023/10/31 09:28:10;;;;;;;8.40;7.57;;;;;;;;;;5015286;28;20226;-70
2023/10/31 09:30:36;;;;;;;10.53;8.33;;;;;;;;;;5013975;28;20262;-70
2023/10/31 09:33:02;;;;;;;9.83;8.27;;;;;;;;;;5019523;28;20233;-70
2023/10/31 09:35:28;;;;;;;11.03;8.53;;;;;;;;;;5015421;28;20184;-70
2023/10/31 09:37:54;;;;;;;8.53;7.80;;;;;;;;;;5013981;28;20576;-70
2023/10/31 09:40:21;;;;;;;9.03;7.83;;;;;;;;;;5013626;28;20180;-70
2023/10/31 09:42:48;;;;;;;9.87;8.43;;;;;;;;;;5011947;28;20176;-70
2023/10/31 09:45:14;;;;;;;9.67;8.17;;;;;;;;;;5012164;28;20176;-70
2023/10/31 09:47:41;;;;;;;9.50;8.10;;;;;;;;;;5012205;28;20694;-70
2023/10/31 09:50:09;;;;;;;9.50;8.30;;;;;;;;;;5012122;28;20195;-70
2023/10/31 09:52:36;;;;;;;14.50;8.37;;;;;;;;;;5013321;28;20183;-70
2023/10/31 09:55:02;;;;;;;9.70;8.80;;;;;;;;;;5013158;28;20187;-70
2023/10/31 09:57:29;;;;;;;9.10;8.30;;;;;;;;;;5011990;28;20215;-70
2023/10/31 09:59:55;;;;;;;9.83;8.57;;;;;;;;;;5013346;28;20176;-70
2023/10/31 10:02:21;;;;;;;11.23;8.87;;;;;;;;;;5012010;28;20184;-70
2023/10/31 10:04:48;;;;;;;10.43;9.13;;;;;;;;;;5012435;28;20650;-70
2023/10/31 10:07:16;;;;;;;11.97;9.27;;;;;;;;;;5013235;28;20310;-70
2023/10/31 10:09:43;;;;;;;10.23;8.57;;;;;;;;;;5013414;28;20187;-70
2023/10/31 10:12:12;;;;;;;13.40;9.37;;;;;;;;;;5013235;28;20176;-68
2023/10/31 10:14:38;;;;;;;9.83;8.03;;;;;;;;;;5013122;28;20180;-70
2023/10/31 10:17:14;;;;;;;8.47;7.43;;;;;;;;;;5013714;28;20206;-70
2023/10/31 10:19:40;;;;;;;10.03;8.27;;;;;;;;;;5012204;28;20179;-70
2023/10/31 10:22:06;;;;;;;10.73;8.43;;;;;;;;;;5012422;28;20175;-70
2023/10/31 10:24:32;;;;;;;9.00;7.53;;;;;;;;;;5027421;23;20248;-67
2023/10/31 10:26:58;;;;;;;11.93;7.80;;;;;;;;;;5011721;28;20586;-67
2023/10/31 10:29:26;;;;;;;14.20;8.13;;;;;;;;;;5011843;28;20186;-67
2023/10/31 10:31:52;;;;;;;10.93;7.50;;;;;;;;;;5013064;28;20176;-67
2023/10/31 10:34:18;;;;;;;8.03;7.23;;;;;;;;;;5014625;28;20254;-67
2023/10/31 10:36:54;;;;;;;11.67;6.77;;;;;;;;;;5016451;28;20215;-67
2023/10/31 10:39:21;;;;;;;9.27;6.33;;;;;;;;;;5017964;28;20563;-68
2023/10/31 10:41:53;;;;;;;6.33;5.63;;;;;;;;;;5016242;28;20274;-68
2023/10/31 10:44:19;;;;;;;9.43;6.27;;;;;;;;;;5017441;28;20191;-68
2023/10/31 10:46:50;;;;;;;10.43;6.23;;;;;;;;;;5015395;28;20180;-68
2023/10/31 10:49:17;;;;;;;10.33;6.23;;;;;;;;;;5016881;28;20239;-68
2023/10/31 10:51:48;;;;;;;10.17;6.17;;;;;;;;;;5016735;28;20622;-68
2023/10/31 10:54:23;;;;;;;9.43;5.53;;;;;;;;;;5016660;28;20226;-68
2023/10/31 10:56:56;;;;;;;13.27;5.80;;;;;;;;;;5016962;28;20163;-68
2023/10/31 10:59:27;;;;;;;10.13;5.73;;;;;;;;;;5015473;28;20188;-68
2023/10/31 11:01:53;;;;;;;7.00;5.27;;;;;;;;;;5015213;28;20627;-68
2023/10/31 11:04:19;;;;;;;6.43;4.97;;;;;;;;;;5015023;28;20680;-68
2023/10/31 11:06:46;;;;;;;7.73;4.70;;;;;;;;;;5015115;28;20712;-68
2023/10/31 11:09:12;;;;;;;6.20;4.60;;;;;;;;;;5015134;28;20190;-68
2023/10/31 11:11:38;;;;;;;8.00;3.97;;;;;;;;;;5014837;28;20176;-68
2023/10/31 11:14:04;;;;;;;7.60;5.10;;;;;;;;;;5014968;28;20697;-68
2023/10/31 11:16:34;;;;;;;9.10;4.40;;;;;;;;;;5016442;28;20265;-68
2023/10/31 11:19:01;;;;;;;9.27;4.70;;;;;;;;;;5016872;28;20207;-67
2023/10/31 11:21:30;;;;;;;7.33;4.07;;;;;;;;;;5016289;28;20184;-68
2023/10/31 11:23:59;;;;;;;5.87;4.30;;;;;;;;;;5016416;28;20685;-68
2023/10/31 11:26:30;;;;;;;6.07;4.43;;;;;;;;;;5016373;28;20180;-68
2023/10/31 11:29:08;;;;;;;9.47;4.60;;;;;;;;;;5014934;28;20180;-67
2023/10/31 11:31:34;;;;;;;9.50;4.63;;;;;;;;;;5015989;28;20176;-67
2023/10/31 11:34:04;;;;;;;8.20;5.00;;;;;;;;;;5015864;28;20223;-68
2023/10/31 11:36:33;;;;;;;6.53;4.67;;;;;;;;;;5016022;28;20207;-67
2023/10/31 11:39:12;;;;;;;7.33;4.80;;;;;;;;;;5016157;28;20229;-68
2023/10/31 11:41:39;;;;;;;6.57;4.60;;;;;;;;;;5016379;28;20555;-67
2023/10/31 11:44:05;;;;;;;6.90;4.37;;;;;;;;;;5015750;28;20282;-68
2023/10/31 11:46:31;;;;;;;8.53;4.37;;;;;;;;;;5013064;28;20176;-68
2023/10/31 11:48:57;;;;;;;6.50;4.43;;;;;;;;;;5014349;28;20184;-68
2023/10/31 11:51:24;;;;;;;9.17;4.43;;;;;;;;;;5014163;28;20545;-67
2023/10/31 11:53:50;;;;;;;4.20;3.70;;;;;;;;;;5014004;28;20200;-67
2023/10/31 11:56:16;;;;;;;7.53;3.90;;;;;;;;;;5014115;28;20195;-67
2023/10/31 11:58:42;;;;;;;9.53;3.87;;;;;;;;;;5015358;28;20208;-68
2023/10/31 12:01:09;;;;;;;6.53;3.27;;;;;;;;;;5015277;28;20218;-67
2023/10/31 12:03:39;;;;;;;6.83;3.40;;;;;;;;;;5015154;28;20290;-67
2023/10/31 12:06:05;;;;;;;7.20;3.10;;;;;;;;;;5015366;28;20257;-67
2023/10/31 12:08:32;;;;;;;5.90;3.30;;;;;;;;;;5015286;28;20535;-68
2023/10/31 12:11:15;;;;;;;5.47;3.30;;;;;;;;;;5015070;28;20180;-68
2023/10/31 12:13:51;;;;;;;4.03;3.00;;;;;;;;;;5015095;28;20199;-67
2023/10/31 12:16:18;;;;;;;5.80;3.50;;;;;;;;;;5015084;28;20164;-67
2023/10/31 12:18:44;;;;;;;3.67;2.90;;;;;;;;;;5013951;28;20215;-68
2023/10/31 12:21:14;;;;;;;3.63;2.90;;;;;;;;;;5013935;28;20211;-67
2023/10/31 12:23:40;;;;;;;7.67;2.67;;;;;;;;;;5013989;28;20588;-68
2023/10/31 12:26:06;;;;;;;5.73;2.67;;;;;;;;;;5015547;28;20168;-67
2023/10/31 12:28:32;;;;;;;3.27;2.67;;;;;;;;;;5014819;28;20180;-67
2023/10/31 12:30:59;;;;;;;5.67;2.60;;;;;;;;;;5015017;28;20696;-68
2023/10/31 12:33:28;;;;;;;6.53;2.30;;;;;;;;;;5013228;28;20191;-68
2023/10/31 12:35:58;;;;;;;6.50;2.50;;;;;;;;;;5014725;28;20226;-68
2023/10/31 12:38:24;;;;;;;3.33;2.37;;;;;;;;;;5013221;28;20303;-67
2023/10/31 12:40:51;;;;;;;5.93;2.53;;;;;;;;;;5014729;28;20191;-67
2023/10/31 12:43:17;;;;;;;2.97;2.53;;;;;;;;;;5014714;28;20180;-68
2023/10/31 12:45:43;;;;;;;3.07;2.13;;;;;;;;;;5014565;28;20226;-68
2023/10/31 12:48:12;;;;;;;4.00;2.30;;;;;;;;;;5014410;28;20180;-68
2023/10/31 12:50:40;;;;;;;5.50;2.33;;;;;;;;;;5014421;28;20180;-67
2023/10/31 12:53:06;;;;;;;2.53;2.30;;;;;;;;;;5014739;28;20199;-67
2023/10/31 12:55:38;;;;;;;4.87;2.80;;;;;;;;;;5014193;28;20278;-68
2023/10/31 12:58:04;;;;;;;3.70;2.23;;;;;;;;;;5014133;28;20375;-68
2023/10/31 13:00:31;;;;;;;5.27;2.10;;;;;;;;;;5014326;28;20215;-67
2023/10/31 13:03:04;;;;;;;6.27;3.00;;;;;;;;;;5014197;28;20175;-67
2023/10/31 13:05:31;;;;;;;6.57;2.40;;;;;;;;;;5012796;28;20210;-67
2023/10/31 13:07:57;;;;;;;4.27;2.40;;;;;;;;;;5014155;28;20186;-68
2023/10/31 13:10:24;;;;;;;3.97;2.27;;;;;;;;;;5014107;28;20237;-67
2023/10/31 13:12:50;;;;;;;3.40;2.10;;;;;;;;;;5013233;28;20380;-67
2023/10/31 13:15:18;;;;;;;2.90;2.63;;;;;;;;;;5013099;28;20204;-67
2023/10/31 13:17:44;;;;;;;4.63;2.93;;;;;;;;;;5013948;28;20516;-67
2023/10/31 13:20:11;;;;;;;3.37;2.30;;;;;;;;;;5013902;28;20176;-67
2023/10/31 13:22:37;;;;;;;5.13;2.37;;;;;;;;;;5014122;28;20299;-68
2023/10/31 13:25:07;;;;;;;4.07;2.30;;;;;;;;;;5013717;28;20219;-67
2023/10/31 13:27:43;;;;;;;3.17;2.20;;;;;;;;;;5013627;28;20176;-67
2023/10/31 13:30:13;;;;;;;3.33;2.63;;;;;;;;;;5012387;28;20183;-67
2023/10/31 13:32:40;;;;;;;6.43;2.70;;;;;;;;;;5014348;28;20532;-67
2023/10/31 13:35:09;;;;;;;3.47;2.30;;;;;;;;;;5013772;28;20685;-67
2023/10/31 13:37:35;;;;;;;3.50;2.10;;;;;;;;;;5013580;28;20208;-67
2023/10/31 13:40:01;;;;;;;4.27;2.17;;;;;;;;;;5012280;28;20804;-67
2023/10/31 13:42:28;;;;;;;2.17;1.93;;;;;;;;;;5013836;28;20182;-67
2023/10/31 13:44:54;;;;;;;4.33;1.90;;;;;;;;;;5013537;28;20198;-67
2023/10/31 13:47:20;;;;;;;2.60;1.83;;;;;;;;;;5012212;28;20183;-67
2023/10/31 13:49:47;;;;;;;2.80;1.70;;;;;;;;;;5013521;28;20180;-67
2023/10/31 13:52:13;;;;;;;3.03;1.90;;;;;;;;;;5012157;28;20322;-67
2023/10/31 13:54:39;;;;;;;3.20;1.80;;;;;;;;;;5012190;28;20208;-67
2023/10/31 13:57:05;;;;;;;3.93;1.60;;;;;;;;;;5013421;28;20203;-67
2023/10/31 13:59:31;;;;;;;5.33;2.03;;;;;;;;;;5013478;28;20234;-67
2023/10/31 14:01:57;;;;;;;4.37;1.93;;;;;;;;;;5013684;28;20697;-66
2023/10/31 14:04:23;;;;;;;4.47;2.00;;;;;;;;;;5012502;28;20203;-67
2023/10/31 14:06:49;;;;;;;4.10;2.20;;;;;;;;;;5014578;28;20175;-67
2023/10/31 14:09:15;;;;;;;4.97;2.10;;;;;;;;;;5012808;28;20691;-67
2023/10/31 14:11:42;;;;;;;5.23;1.80;;;;;;;;;;5012490;28;20183;-67
2023/10/31 14:14:13;;;;;;;5.03;1.87;;;;;;;;;;5013502;28;20219;-67
2023/10/31 14:16:39;;;;;;;3.77;1.60;;;;;;;;;;5013592;28;20152;-68
2023/10/31 14:19:07;;;;;;;3.30;2.03;;;;;;;;;;5013443;28;20237;-67
2023/10/31 14:21:33;;;;;;;4.83;2.23;;;;;;;;;;5011907;28;20179;-67
2023/10/31 14:23:59;;;;;;;3.63;1.83;;;;;;;;;;5012729;28;20245;-67